sensor_id;sensor_type;location;lat;lon;timestamp;pressure;altitude;pressure_sealevel;temperature;humidity
46836;BME280;32573;51.290;6.926;2022-10-23T00:01:21;100103.63;;;13.47;100.00
46836;BME280;32573;51.290;6.926;2022-10-23T00:03:53;100103.59;;;13.44;100.00
46836;BME280;32573;51.290;6.926;2022-10-23T00:06:23;100093.91;;;13.41;100.00
46836;BME280;32573;51.290;6.926;2022-10-23T00:08:51;100092.13;;;13.38;100.00
46836;BME280;32573;51.290;6.926;2022-10-23T00:11:22;100096.47;;;13.36;100.00
46836;BME280;32573;51.290;6.926;2022-10-23T00:13:53;100096.44;;;13.35;100.00
46836;BME280;32573;51.290;6.926;2022-10-23T00:16:21;100096.38;;;13.32;100.00
46836;BME280;32573;51.290;6.926;2022-10-23T00:18:49;100099.88;;;13.31;100.00
46836;BME280;32573;51.290;6.926;2022-10-23T00:21:19;100100.72;;;13.28;100.00
46836;BME280;32573;51.290;6.926;2022-10-23T00:23:48;100095.44;;;13.27;100.00
46836;BME280;32573;51.290;6.926;2022-10-23T00:26:16;100093.59;;;13.24;100.00
46836;BME280;32573;51.290;6.926;2022-10-23T00:28:46;100106.72;;;13.23;100.00
46836;BME280;32573;51.290;6.926;2022-10-23T00:31:16;100087.44;;;13.21;100.00
46836;BME280;32573;51.290;6.926;2022-10-23T00:33:45;100087.34;;;13.17;100.00
46836;BME280;32573;51.290;6.926;2022-10-23T00:36:16;100090.84;;;13.16;100.00
46836;BME280;32573;51.290;6.926;2022-10-23T00:38:47;100089.94;;;13.13;100.00
46836;BME280;32573;51.290;6.926;2022-10-23T00:41:17;100090.78;;;13.10;100.00
46836;BME280;32573;51.290;6.926;2022-10-23T00:43:58;100089.88;;;13.10;100.00
46836;BME280;32573;51.290;6.926;2022-10-23T00:46:27;100099.44;;;13.06;100.00
46836;BME280;32573;51.290;6.926;2022-10-23T00:48:56;100088.06;;;13.06;100.00
46836;BME280;32573;51.290;6.926;2022-10-23T00:51:27;100085.41;;;13.04;100.00
46836;BME280;32573;51.290;6.926;2022-10-23T00:53:58;100084.47;;;13.02;100.00
46836;BME280;32573;51.290;6.926;2022-10-23T00:56:48;100090.63;;;13.01;100.00
46836;BME280;32573;51.290;6.926;2022-10-23T00:59:16;100088.81;;;13.00;100.00
46836;BME280;32573;51.290;6.926;2022-10-23T01:01:44;100080.06;;;12.98;100.00
46836;BME280;32573;51.290;6.926;2022-10-23T01:04:13;100076.50;;;12.96;100.00
46836;BME280;32573;51.290;6.926;2022-10-23T01:06:48;100070.34;;;12.94;100.00
46836;BME280;32573;51.290;6.926;2022-10-23T01:09:26;100071.22;;;12.93;100.00
46836;BME280;32573;51.290;6.926;2022-10-23T01:12:00;100073.81;;;12.91;100.00
46836;BME280;32573;51.290;6.926;2022-10-23T01:14:33;100076.41;;;12.90;100.00
46836;BME280;32573;51.290;6.926;2022-10-23T01:17:08;100069.38;;;12.89;100.00
46836;BME280;32573;51.290;6.926;2022-10-23T01:19:49;100072.84;;;12.88;100.00
46836;BME280;32573;51.290;6.926;2022-10-23T01:22:32;100071.97;;;12.86;100.00
46836;BME280;32573;51.290;6.926;2022-10-23T01:25:18;100077.19;;;12.84;100.00
46836;BME280;32573;51.290;6.926;2022-10-23T01:27:55;100077.16;;;12.83;100.00
46836;BME280;32573;51.290;6.926;2022-10-23T01:30:28;100076.25;;;12.81;100.00
46836;BME280;32573;51.290;6.926;2022-10-23T01:33:01;100074.47;;;12.80;100.00
46836;BME280;32573;51.290;6.926;2022-10-23T01:35:44;100073.63;;;12.81;100.00
46836;BME280;32573;51.290;6.926;2022-10-23T01:38:18;100067.47;;;12.79;100.00
46836;BME280;32573;51.290;6.926;2022-10-23T01:40:53;100062.22;;;12.79;100.00
46836;BME280;32573;51.290;6.926;2022-10-23T01:43:27;100054.28;;;12.77;100.00
46836;BME280;32573;51.290;6.926;2022-10-23T01:46:00;100043.78;;;12.76;100.00
46836;BME280;32573;51.290;6.926;2022-10-23T01:48:31;100037.66;;;12.77;100.00
46836;BME280;32573;51.290;6.926;2022-10-23T01:51:04;100023.66;;;12.78;100.00
46836;BME280;32573;51.290;6.926;2022-10-23T01:53:38;100020.13;;;12.76;100.00
46836;BME280;32573;51.290;6.926;2022-10-23T01:56:11;100016.63;;;12.77;100.00
46836;BME280;32573;51.290;6.926;2022-10-23T01:58:44;100021.03;;;12.78;100.00
46836;BME280;32573;51.290;6.926;2022-10-23T02:01:15;100016.69;;;12.80;100.00
46836;BME280;32573;51.290;6.926;2022-10-23T02:03:49;100020.22;;;12.82;100.00
46836;BME280;32573;51.290;6.926;2022-10-23T02:06:19;100019.34;;;12.83;100.00
46836;BME280;32573;51.290;6.926;2022-10-23T02:08:47;100022.91;;;12.85;100.00
46836;BME280;32573;51.290;6.926;2022-10-23T02:11:18;100016.81;;;12.86;100.00
46836;BME280;32573;51.290;6.926;2022-10-23T02:13:53;100019.44;;;12.87;100.00
46836;BME280;32573;51.290;6.926;2022-10-23T02:16:29;100011.59;;;12.89;100.00
46836;BME280;32573;51.290;6.926;2022-10-23T02:19:05;100013.34;;;12.90;100.00
46836;BME280;32573;51.290;6.926;2022-10-23T02:21:41;100010.75;;;12.91;100.00
46836;BME280;32573;51.290;6.926;2022-10-23T02:24:18;100002.00;;;12.92;100.00
46836;BME280;32573;51.290;6.926;2022-10-23T02:26:50;100004.66;;;12.94;100.00
46836;BME280;32573;51.290;6.926;2022-10-23T02:29:27;100000.31;;;12.96;100.00
46836;BME280;32573;51.290;6.926;2022-10-23T02:31:59;99995.91;;;12.95;100.00
46836;BME280;32573;51.290;6.926;2022-10-23T02:34:27;99995.91;;;12.95;100.00
46836;BME280;32573;51.290;6.926;2022-10-23T02:36:56;99987.19;;;12.96;100.00
46836;BME280;32573;51.290;6.926;2022-10-23T02:39:26;99988.06;;;12.97;100.00
46836;BME280;32573;51.290;6.926;2022-10-23T02:42:00;99976.69;;;12.96;100.00
46836;BME280;32573;51.290;6.926;2022-10-23T02:44:40;99973.19;;;12.97;100.00
46836;BME280;32573;51.290;6.926;2022-10-23T02:47:19;99967.03;;;12.97;100.00
46836;BME280;32573;51.290;6.926;2022-10-23T02:49:53;99969.63;;;12.95;100.00
46836;BME280;32573;51.290;6.926;2022-10-23T02:52:32;99972.25;;;12.95;100.00
46836;BME280;32573;51.290;6.926;2022-10-23T02:55:13;99967.88;;;12.94;100.00
46836;BME280;32573;51.290;6.926;2022-10-23T02:57:51;99959.13;;;12.93;100.00
46836;BME280;32573;51.290;6.926;2022-10-23T03:00:22;99960.88;;;12.93;100.00
46836;BME280;32573;51.290;6.926;2022-10-23T03:02:55;99959.09;;;12.92;100.00
46836;BME280;32573;51.290;6.926;2022-10-23T03:05:31;99964.34;;;12.92;100.00
46836;BME280;32573;51.290;6.926;2022-10-23T03:08:02;99957.34;;;12.91;100.00
46836;BME280;32573;51.290;6.926;2022-10-23T03:10:31;99965.22;;;12.91;100.00
46836;BME280;32573;51.290;6.926;2022-10-23T03:12:59;99954.66;;;12.89;100.00
46836;BME280;32573;51.290;6.926;2022-10-23T03:15:34;99955.56;;;12.90;100.00
46836;BME280;32573;51.290;6.926;2022-10-23T03:18:02;99953.78;;;12.89;100.00
46836;BME280;32573;51.290;6.926;2022-10-23T03:20:31;99946.75;;;12.88;100.00
46836;BME280;32573;51.290;6.926;2022-10-23T03:23:00;99946.75;;;12.88;100.00
46836;BME280;32573;51.290;6.926;2022-10-23T03:25:28;99944.13;;;12.88;100.00
46836;BME280;32573;51.290;6.926;2022-10-23T03:27:58;99933.63;;;12.88;100.00
46836;BME280;32573;51.290;6.926;2022-10-23T03:30:27;99921.38;;;12.87;100.00
46836;BME280;32573;51.290;6.926;2022-10-23T03:32:57;99924.88;;;12.87;100.00
46836;BME280;32573;51.290;6.926;2022-10-23T03:35:25;99921.38;;;12.87;100.00
46836;BME280;32573;51.290;6.926;2022-10-23T03:37:53;99916.97;;;12.87;100.00
46836;BME280;32573;51.290;6.926;2022-10-23T03:40:24;99913.47;;;12.87;100.00
46836;BME280;32573;51.290;6.926;2022-10-23T03:42:52;99902.09;;;12.88;100.00
46836;BME280;32573;51.290;6.926;2022-10-23T03:45:21;99897.75;;;12.88;100.00
46836;BME280;32573;51.290;6.926;2022-10-23T03:47:49;99905.63;;;12.88;100.00
46836;BME280;32573;51.290;6.926;2022-10-23T03:50:19;99905.63;;;12.88;100.00
46836;BME280;32573;51.290;6.926;2022-10-23T03:52:47;99915.28;;;12.89;100.00
46836;BME280;32573;51.290;6.926;2022-10-23T03:55:16;99914.41;;;12.89;100.00
46836;BME280;32573;51.290;6.926;2022-10-23T03:57:44;99915.31;;;12.91;100.00
46836;BME280;32573;51.290;6.926;2022-10-23T04:00:13;99909.16;;;12.90;100.00
46836;BME280;32573;51.290;6.926;2022-10-23T04:02:46;99907.41;;;12.91;100.00
46836;BME280;32573;51.290;6.926;2022-10-23T04:05:15;99913.59;;;12.93;100.00
46836;BME280;32573;51.290;6.926;2022-10-23T04:07:54;99917.06;;;12.92;100.00
46836;BME280;32573;51.290;6.926;2022-10-23T04:10:22;99925.84;;;12.94;100.00
46836;BME280;32573;51.290;6.926;2022-10-23T04:12:50;99922.31;;;12.92;100.00
46836;BME280;32573;51.290;6.926;2022-10-23T04:15:19;99923.22;;;12.94;100.00
46836;BME280;32573;51.290;6.926;2022-10-23T04:17:47;99912.69;;;12.92;100.00
46836;BME280;32573;51.290;6.926;2022-10-23T04:20:16;99918.84;;;12.93;100.00
46836;BME280;32573;51.290;6.926;2022-10-23T04:22:44;99914.47;;;12.93;100.00
46836;BME280;32573;51.290;6.926;2022-10-23T04:25:14;99915.34;;;12.94;100.00
46836;BME280;32573;51.290;6.926;2022-10-23T04:27:44;99901.31;;;12.95;100.00
46836;BME280;32573;51.290;6.926;2022-10-23T04:30:12;99910.09;;;12.94;100.00
46836;BME280;32573;51.290;6.926;2022-10-23T04:32:41;99903.97;;;12.95;100.00
46836;BME280;32573;51.290;6.926;2022-10-23T04:35:09;99901.31;;;12.95;100.00
46836;BME280;32573;51.290;6.926;2022-10-23T04:37:38;99904.88;;;12.95;100.00
46836;BME280;32573;51.290;6.926;2022-10-23T04:40:07;99902.25;;;12.95;100.00
46836;BME280;32573;51.290;6.926;2022-10-23T04:42:38;99895.22;;;12.96;100.00
46836;BME280;32573;51.290;6.926;2022-10-23T04:45:08;99889.97;;;12.98;100.00
46836;BME280;32573;51.290;6.926;2022-10-23T04:47:36;99892.59;;;12.98;100.00
46836;BME280;32573;51.290;6.926;2022-10-23T04:50:05;99881.25;;;12.99;100.00
46836;BME280;32573;51.290;6.926;2022-10-23T04:52:54;99871.59;;;12.98;100.00
46836;BME280;32573;51.290;6.926;2022-10-23T04:55:54;99870.75;;;13.00;100.00
46836;BME280;32573;51.290;6.926;2022-10-23T04:58:30;99862.88;;;13.00;100.00
46836;BME280;32573;51.290;6.926;2022-10-23T05:00:59;99874.28;;;13.02;100.00
46836;BME280;32573;51.290;6.926;2022-10-23T05:03:28;99879.53;;;13.02;100.00
46836;BME280;32573;51.290;6.926;2022-10-23T05:05:58;99872.56;;;13.04;100.00
46836;BME280;32573;51.290;6.926;2022-10-23T05:08:43;99868.22;;;13.06;100.00
46836;BME280;32573;51.290;6.926;2022-10-23T05:11:38;99867.41;;;13.10;100.00
46836;BME280;32573;51.290;6.926;2022-10-23T05:14:09;99861.31;;;13.14;100.00
46836;BME280;32573;51.290;6.926;2022-10-23T05:16:43;99857.88;;;13.19;100.00
46836;BME280;32573;51.290;6.926;2022-10-23T05:19:17;99857.88;;;13.22;100.00
46836;BME280;32573;51.290;6.926;2022-10-23T05:21:51;99857.06;;;13.26;100.00
46836;BME280;32573;51.290;6.926;2022-10-23T05:24:25;99853.63;;;13.30;100.00
46836;BME280;32573;51.290;6.926;2022-10-23T05:26:57;99858.94;;;13.33;100.00
46836;BME280;32573;51.290;6.926;2022-10-23T05:29:31;99850.22;;;13.37;100.00
46836;BME280;32573;51.290;6.926;2022-10-23T05:32:02;99845.84;;;13.39;100.00
46836;BME280;32573;51.290;6.926;2022-10-23T05:34:34;99846.75;;;13.43;100.00
46836;BME280;32573;51.290;6.926;2022-10-23T05:37:06;99836.28;;;13.44;100.00
46836;BME280;32573;51.290;6.926;2022-10-23T05:39:38;99832.78;;;13.47;100.00
46836;BME280;32573;51.290;6.926;2022-10-23T05:42:11;99824.94;;;13.48;100.00
46836;BME280;32573;51.290;6.926;2022-10-23T05:44:42;99817.91;;;13.50;100.00
46836;BME280;32573;51.290;6.926;2022-10-23T05:47:36;99818.81;;;13.52;100.00
46836;BME280;32573;51.290;6.926;2022-10-23T05:50:14;99818.84;;;13.54;100.00
46836;BME280;32573;51.290;6.926;2022-10-23T05:53:05;99821.50;;;13.55;100.00
46836;BME280;32573;51.290;6.926;2022-10-23T05:55:48;99823.25;;;13.56;100.00
46836;BME280;32573;51.290;6.926;2022-10-23T05:58:37;99819.75;;;13.57;100.00
46836;BME280;32573;51.290;6.926;2022-10-23T06:01:16;99822.41;;;13.59;100.00
46836;BME280;32573;51.290;6.926;2022-10-23T06:04:01;99817.16;;;13.59;100.00
46836;BME280;32573;51.290;6.926;2022-10-23T06:07:02;99811.88;;;13.59;100.00
46836;BME280;32573;51.290;6.926;2022-10-23T06:09:31;99812.75;;;13.59;100.00
46836;BME280;32573;51.290;6.926;2022-10-23T06:12:00;99802.25;;;13.59;100.00
46836;BME280;32573;51.290;6.926;2022-10-23T06:14:30;99796.09;;;13.57;100.00
46836;BME280;32573;51.290;6.926;2022-10-23T06:17:00;99794.34;;;13.58;100.00
46836;BME280;32573;51.290;6.926;2022-10-23T06:19:28;99803.09;;;13.57;100.00
46836;BME280;32573;51.290;6.926;2022-10-23T06:21:57;99803.09;;;13.57;100.00
46836;BME280;32573;51.290;6.926;2022-10-23T06:24:39;99796.97;;;13.56;100.00
46836;BME280;32573;51.290;6.926;2022-10-23T06:27:11;99796.97;;;13.56;100.00
46836;BME280;32573;51.290;6.926;2022-10-23T06:29:41;99807.47;;;13.56;100.00
46836;BME280;32573;51.290;6.926;2022-10-23T06:32:12;99796.97;;;13.56;100.00
46836;BME280;32573;51.290;6.926;2022-10-23T06:34:46;99807.47;;;13.56;100.00
46836;BME280;32573;51.290;6.926;2022-10-23T06:37:14;99798.72;;;13.57;100.00
46836;BME280;32573;51.290;6.926;2022-10-23T06:39:53;99802.25;;;13.59;100.00
46836;BME280;32573;51.290;6.926;2022-10-23T06:42:32;99798.78;;;13.61;100.00
46836;BME280;32573;51.290;6.926;2022-10-23T06:45:19;99793.50;;;13.61;100.00
46836;BME280;32573;51.290;6.926;2022-10-23T06:47:49;99793.53;;;13.64;100.00
46836;BME280;32573;51.290;6.926;2022-10-23T06:50:21;99790.91;;;13.64;100.00
46836;BME280;32573;51.290;6.926;2022-10-23T06:52:52;99784.75;;;13.65;100.00
46836;BME280;32573;51.290;6.926;2022-10-23T06:55:21;99790.03;;;13.68;100.00
46836;BME280;32573;51.290;6.926;2022-10-23T06:57:50;99783.06;;;13.70;100.00
46836;BME280;32573;51.290;6.926;2022-10-23T07:00:18;99786.59;;;13.72;100.00
46836;BME280;32573;51.290;6.926;2022-10-23T07:02:52;99774.31;;;13.74;100.00
46836;BME280;32573;51.290;6.926;2022-10-23T07:05:21;99781.38;;;13.78;100.00
46836;BME280;32573;51.290;6.926;2022-10-23T07:07:50;99773.50;;;13.81;100.00
46836;BME280;32573;51.290;6.926;2022-10-23T07:10:24;99771.78;;;13.83;100.00
46836;BME280;32573;51.290;6.926;2022-10-23T07:12:57;99774.41;;;13.85;100.00
46836;BME280;32573;51.290;6.926;2022-10-23T07:15:50;99772.69;;;13.88;100.00
46836;BME280;32573;51.290;6.926;2022-10-23T07:18:24;99775.31;;;13.90;100.00
46836;BME280;32573;51.290;6.926;2022-10-23T07:21:15;99760.47;;;13.93;100.00
46836;BME280;32573;51.290;6.926;2022-10-23T07:23:43;99768.38;;;13.96;100.00
46836;BME280;32573;51.290;6.926;2022-10-23T07:26:14;99773.66;;;13.98;100.00
46836;BME280;32573;51.290;6.926;2022-10-23T07:28:45;99768.41;;;14.02;100.00
46836;BME280;32573;51.290;6.926;2022-10-23T07:31:17;99767.53;;;14.05;100.00
46836;BME280;32573;51.290;6.926;2022-10-23T07:34:11;99762.31;;;14.10;100.00
46836;BME280;32573;51.290;6.926;2022-10-23T07:36:41;99759.72;;;14.13;100.00
46836;BME280;32573;51.290;6.926;2022-10-23T07:39:28;99766.75;;;14.17;100.00
46836;BME280;32573;51.290;6.926;2022-10-23T07:41:56;99758.88;;;14.20;100.00
46836;BME280;32573;51.290;6.926;2022-10-23T07:44:25;99757.16;;;14.25;100.00
46836;BME280;32573;51.290;6.926;2022-10-23T07:46:54;99757.19;;;14.30;100.00
46836;BME280;32573;51.290;6.926;2022-10-23T07:49:24;99757.22;;;14.34;100.00
46836;BME280;32573;51.290;6.926;2022-10-23T07:51:53;99747.59;;;14.39;100.00
46836;BME280;32573;51.290;6.926;2022-10-23T07:54:31;99740.63;;;14.46;100.00
46836;BME280;32573;51.290;6.926;2022-10-23T07:57:25;99750.34;;;14.53;100.00
46836;BME280;32573;51.290;6.926;2022-10-23T07:59:58;99746.84;;;14.59;100.00
46836;BME280;32573;51.290;6.926;2022-10-23T08:02:26;99743.38;;;14.66;100.00
46836;BME280;32573;51.290;6.926;2022-10-23T08:04:57;99739.03;;;14.73;100.00
46836;BME280;32573;51.290;6.926;2022-10-23T08:07:32;99734.63;;;14.79;100.00
46836;BME280;32573;51.290;6.926;2022-10-23T08:10:00;99733.78;;;14.86;100.00
46836;BME280;32573;51.290;6.926;2022-10-23T08:12:29;99729.41;;;14.95;100.00
46836;BME280;32573;51.290;6.926;2022-10-23T08:14:58;99735.59;;;15.01;100.00
46836;BME280;32573;51.290;6.926;2022-10-23T08:17:34;99729.44;;;15.10;100.00
46836;BME280;32573;51.290;6.926;2022-10-23T08:20:14;99732.13;;;15.18;100.00
46836;BME280;32573;51.290;6.926;2022-10-23T08:22:44;99734.78;;;15.25;100.00
46836;BME280;32573;51.290;6.926;2022-10-23T08:25:18;99724.22;;;15.31;100.00
46836;BME280;32573;51.290;6.926;2022-10-23T08:27:52;99733.94;;;15.40;100.00
46836;BME280;32573;51.290;6.926;2022-10-23T08:30:21;99731.28;;;15.48;100.00
46836;BME280;32573;51.290;6.926;2022-10-23T08:32:49;99729.53;;;15.56;100.00
46836;BME280;32573;51.290;6.926;2022-10-23T08:35:19;99740.09;;;15.65;100.00
46836;BME280;32573;51.290;6.926;2022-10-23T08:37:47;99729.56;;;15.71;100.00
46836;BME280;32573;51.290;6.926;2022-10-23T08:40:18;99734.84;;;15.81;100.00
46836;BME280;32573;51.290;6.926;2022-10-23T08:43:13;99743.63;;;15.89;100.00
46836;BME280;32573;51.290;6.926;2022-10-23T08:46:01;99739.25;;;15.95;100.00
46836;BME280;32573;51.290;6.926;2022-10-23T08:49:23;99721.63;;;16.04;100.00
46836;BME280;32573;51.290;6.926;2022-10-23T08:52:11;99726.88;;;16.11;100.00
46836;BME280;32573;51.290;6.926;2022-10-23T08:54:53;99729.53;;;16.17;100.00
46836;BME280;32573;51.290;6.926;2022-10-23T08:57:27;99726.00;;;16.23;100.00
46836;BME280;32573;51.290;6.926;2022-10-23T09:00:03;99717.16;;;16.29;100.00
46836;BME280;32573;51.290;6.926;2022-10-23T09:02:36;99714.50;;;16.36;100.00
46836;BME280;32573;51.290;6.926;2022-10-23T09:05:11;99714.50;;;16.43;100.00
46836;BME280;32573;51.290;6.926;2022-10-23T09:07:51;99720.63;;;16.49;100.00
46836;BME280;32573;51.290;6.926;2022-10-23T09:10:50;99704.75;;;16.55;100.00
46836;BME280;32573;51.290;6.926;2022-10-23T09:16:29;99692.38;;;16.67;100.00
46836;BME280;32573;51.290;6.926;2022-10-23T09:19:10;99689.72;;;16.71;100.00
46836;BME280;32573;51.290;6.926;2022-10-23T09:21:39;99688.78;;;16.77;100.00
46836;BME280;32573;51.290;6.926;2022-10-23T09:24:13;99687.03;;;16.82;100.00
46836;BME280;32573;51.290;6.926;2022-10-23T09:26:44;99678.22;;;16.86;100.00
46836;BME280;32573;51.290;6.926;2022-10-23T09:29:23;99664.09;;;16.90;100.00
46836;BME280;32573;51.290;6.926;2022-10-23T09:31:54;99660.56;;;16.93;100.00
46836;BME280;32573;51.290;6.926;2022-10-23T09:34:25;99663.16;;;16.96;100.00
46836;BME280;32573;51.290;6.926;2022-10-23T09:36:55;99664.91;;;16.98;100.00
46836;BME280;32573;51.290;6.926;2022-10-23T09:39:28;99655.22;;;17.00;100.00
46836;BME280;32573;51.290;6.926;2022-10-23T09:41:58;99645.50;;;17.02;100.00
46836;BME280;32573;51.290;6.926;2022-10-23T09:44:30;99641.94;;;17.07;100.00
46836;BME280;32573;51.290;6.926;2022-10-23T09:47:08;99644.59;;;17.08;100.00
46836;BME280;32573;51.290;6.926;2022-10-23T09:49:39;99639.25;;;17.13;100.00
46836;BME280;32573;51.290;6.926;2022-10-23T09:52:21;99629.56;;;17.15;100.00
46836;BME280;32573;51.290;6.926;2022-10-23T09:54:53;99631.28;;;17.19;100.00
46836;BME280;32573;51.290;6.926;2022-10-23T09:57:23;99625.94;;;17.23;100.00
46836;BME280;32573;51.290;6.926;2022-10-23T09:59:56;99625.00;;;17.29;100.00
46836;BME280;32573;51.290;6.926;2022-10-23T10:02:28;99626.75;;;17.33;100.00
46836;BME280;32573;51.290;6.926;2022-10-23T10:05:31;99628.47;;;17.40;100.00
46836;BME280;32573;51.290;6.926;2022-10-23T10:08:06;99619.59;;;17.44;100.00
46836;BME280;32573;51.290;6.926;2022-10-23T10:10:45;99622.19;;;17.51;100.00
46836;BME280;32573;51.290;6.926;2022-10-23T10:13:30;99614.19;;;17.57;100.00
46836;BME280;32573;51.290;6.926;2022-10-23T10:16:06;99618.56;;;17.61;100.00
46836;BME280;32573;51.290;6.926;2022-10-23T10:18:41;99611.44;;;17.64;100.00
46836;BME280;32573;51.290;6.926;2022-10-23T10:21:15;99603.47;;;17.69;100.00
46836;BME280;32573;51.290;6.926;2022-10-23T10:23:49;99599.03;;;17.73;100.00
46836;BME280;32573;51.290;6.926;2022-10-23T10:26:33;99593.72;;;17.76;100.00
46836;BME280;32573;51.290;6.926;2022-10-23T10:29:09;99602.50;;;17.78;100.00
46836;BME280;32573;51.290;6.926;2022-10-23T10:31:53;99609.53;;;17.82;100.00
46836;BME280;32573;51.290;6.926;2022-10-23T10:34:31;99598.03;;;17.84;100.00
46836;BME280;32573;51.290;6.926;2022-10-23T10:37:05;99595.38;;;17.87;100.00
46836;BME280;32573;51.290;6.926;2022-10-23T10:39:44;99591.78;;;17.92;100.00
46836;BME280;32573;51.290;6.926;2022-10-23T10:42:40;99590.00;;;17.92;100.00
46836;BME280;32573;51.290;6.926;2022-10-23T10:45:19;99590.88;;;17.96;100.00
46836;BME280;32573;51.290;6.926;2022-10-23T10:48:02;99583.75;;;18.01;100.00
46836;BME280;32573;51.290;6.926;2022-10-23T10:51:00;99572.19;;;18.06;100.00
46836;BME280;32573;51.290;6.926;2022-10-23T10:53:51;99560.69;;;18.09;100.00
46836;BME280;32573;51.290;6.926;2022-10-23T10:56:24;99551.81;;;18.13;100.00
46836;BME280;32573;51.290;6.926;2022-10-23T10:58:58;99546.47;;;18.16;100.00
46836;BME280;32573;51.290;6.926;2022-10-23T11:01:31;99544.63;;;18.21;100.00
46836;BME280;32573;51.290;6.926;2022-10-23T11:04:05;99544.59;;;18.24;100.00
46836;BME280;32573;51.290;6.926;2022-10-23T11:06:40;99535.72;;;18.28;100.00
46836;BME280;32573;51.290;6.926;2022-10-23T11:09:15;99529.47;;;18.32;100.00
46836;BME280;32573;51.290;6.926;2022-10-23T11:11:47;99518.81;;;18.37;100.00
46836;BME280;32573;51.290;6.926;2022-10-23T11:14:20;99517.00;;;18.39;100.00
46836;BME280;32573;51.290;6.926;2022-10-23T11:16:50;99510.78;;;18.42;100.00
46836;BME280;32573;51.290;6.926;2022-10-23T11:19:21;99506.38;;;18.41;100.00
46836;BME280;32573;51.290;6.926;2022-10-23T11:21:55;99505.47;;;18.42;100.00
46836;BME280;32573;51.290;6.926;2022-10-23T11:27:48;99501.03;;;18.44;100.00
46836;BME280;32573;51.290;6.926;2022-10-23T11:30:28;99491.28;;;18.46;100.00
46836;BME280;32573;51.290;6.926;2022-10-23T11:33:30;99492.09;;;18.49;100.00
46836;BME280;32573;51.290;6.926;2022-10-23T11:36:12;99489.44;;;18.51;100.00
46836;BME280;32573;51.290;6.926;2022-10-23T11:38:44;99481.50;;;18.51;100.00
46836;BME280;32573;51.290;6.926;2022-10-23T11:41:19;99473.53;;;18.51;100.00
46836;BME280;32573;51.290;6.926;2022-10-23T11:43:54;99464.66;;;18.52;100.00
46836;BME280;32573;51.290;6.926;2022-10-23T11:46:33;99463.81;;;18.51;100.00
46836;BME280;32573;51.290;6.926;2022-10-23T11:49:04;99464.72;;;18.50;100.00
46836;BME280;32573;51.290;6.926;2022-10-23T11:51:34;99463.84;;;18.50;100.00
46836;BME280;32573;51.290;6.926;2022-10-23T11:54:22;99475.38;;;18.47;100.00
46836;BME280;32573;51.290;6.926;2022-10-23T11:57:03;99479.78;;;18.47;100.00
46836;BME280;32573;51.290;6.926;2022-10-23T11:59:51;99466.53;;;18.47;100.00
46836;BME280;32573;51.290;6.926;2022-10-23T12:02:27;99460.34;;;18.46;100.00
46836;BME280;32573;51.290;6.926;2022-10-23T12:05:01;99447.97;;;18.48;100.00
46836;BME280;32573;51.290;6.926;2022-10-23T12:07:33;99456.72;;;18.52;100.00
46836;BME280;32573;51.290;6.926;2022-10-23T12:10:05;99452.25;;;18.57;100.00
46836;BME280;32573;51.290;6.926;2022-10-23T12:12:35;99456.56;;;18.63;100.00
46836;BME280;32573;51.290;6.926;2022-10-23T12:15:17;99450.28;;;18.67;100.00
46836;BME280;32573;51.290;6.926;2022-10-23T12:17:48;99455.47;;;18.74;100.00
46836;BME280;32573;51.290;6.926;2022-10-23T12:20:29;99443.88;;;18.82;100.00
46836;BME280;32573;51.290;6.926;2022-10-23T12:23:15;99437.66;;;18.86;100.00
46836;BME280;32573;51.290;6.926;2022-10-23T12:26:01;99424.25;;;18.92;100.00
46836;BME280;32573;51.290;6.926;2022-10-23T12:28:37;99426.81;;;18.98;100.00
46836;BME280;32573;51.290;6.926;2022-10-23T12:31:21;99419.56;;;19.06;100.00
46836;BME280;32573;51.290;6.926;2022-10-23T12:34:00;99415.94;;;19.12;100.00
46836;BME280;32573;51.290;6.926;2022-10-23T12:36:42;99419.34;;;19.18;100.00
46836;BME280;32573;51.290;6.926;2022-10-23T12:39:25;99419.34;;;19.18;100.00
46836;BME280;32573;51.290;6.926;2022-10-23T12:41:54;99407.78;;;19.23;100.00
46836;BME280;32573;51.290;6.926;2022-10-23T12:44:23;99405.03;;;19.27;100.00
46836;BME280;32573;51.290;6.926;2022-10-23T12:46:54;99401.44;;;19.30;100.00
46836;BME280;32573;51.290;6.926;2022-10-23T12:49:26;99400.47;;;19.34;100.00
46836;BME280;32573;51.290;6.926;2022-10-23T12:51:59;99390.72;;;19.34;100.00
46836;BME280;32573;51.290;6.926;2022-10-23T12:54:30;99387.16;;;19.35;100.00
46836;BME280;32573;51.290;6.926;2022-10-23T12:56:59;99387.16;;;19.37;100.00
46836;BME280;32573;51.290;6.926;2022-10-23T12:59:36;99387.09;;;19.40;100.00
46836;BME280;32573;51.290;6.926;2022-10-23T13:02:13;99383.50;;;19.41;100.00
46836;BME280;32573;51.290;6.926;2022-10-23T13:04:51;99394.97;;;19.43;100.00
46836;BME280;32573;51.290;6.926;2022-10-23T13:07:24;99387.00;;;19.43;100.00
46836;BME280;32573;51.290;6.926;2022-10-23T13:09:56;99381.69;;;19.43;100.00
46836;BME280;32573;51.290;6.926;2022-10-23T13:12:30;99369.34;;;19.42;100.00
46836;BME280;32573;51.290;6.926;2022-10-23T13:15:01;99370.16;;;19.44;100.00
46836;BME280;32573;51.290;6.926;2022-10-23T13:17:34;99358.66;;;19.45;100.00
46836;BME280;32573;51.290;6.926;2022-10-23T13:20:19;99368.44;;;19.43;100.00
46836;BME280;32573;51.290;6.926;2022-10-23T13:22:53;99372.97;;;19.38;100.00
46836;BME280;32573;51.290;6.926;2022-10-23T13:25:29;99368.63;;;19.34;100.00
46836;BME280;32573;51.290;6.926;2022-10-23T13:28:16;99353.69;;;19.30;100.00
46836;BME280;32573;51.290;6.926;2022-10-23T13:31:06;99336.03;;;19.27;100.00
46836;BME280;32573;51.290;6.926;2022-10-23T13:33:36;99314.84;;;19.26;100.00